Pelahatchie, Mississippi
Current Conditions -  °F | °C
As of 5:54 AM on Friday 21 Nov 2014 (Local Time) from KJAN Reporting Station
Scattered Clouds Scattered Clouds  
Wind Chill: 39°   Ceiling: Unl
Heat Index: 39°   Visibility: 9mi
Dew Point: 38°   Wind: 0mph
Humidity: 96%   Direction: NA
Pressure: 30.28"   Gusts: NA
Location:  32.31°N, 89.8°W
Report Text: KJAN 211154Z 00000KT 9SM SCT060 04/03 A3028 RMK AO2 SLP252 T00390033 10089 20039 53010
Loading
Personal Weather Stations






























Interactive Weather Map New forecast layout! Learn more

10-Day Weather Forecast

Advertisements
Track Severe Weather on mobile